Terminal Aerodrome Forecast
Issued by NWS

Home | Current Version | Previous Version | Text Only | Print | Product List | Glossary On
Versions: 1 2 3 4 5 6 7 8 9 10 11 12 13 14 15 16 17 18 19 20 21
000
FTUS41 KOKX 241433 AAA
TAFHPN
TAF AMD
KHPN 241433Z 2415/2512 25007KT P6SM SKC
     FM241600 24010G18KT P6SM FEW250
     FM242200 20009KT P6SM SCT250
     FM250100 20005KT P6SM SCT250
     FM250500 VRB02KT P6SM BKN200
      AMD NOT SKED=

USA.gov is the U.S. government's official web portal to all federal, state and local government web resources and services.